sensor_id;sensor_type;location;lat;lon;timestamp;P1;durP1;ratioP1;P2;durP2;ratioP2
4122;SDS011;2075;51.062;6.920;2023-06-10T00:02:39;19.10;;;14.20;;
4122;SDS011;2075;51.062;6.920;2023-06-10T00:05:24;12.20;;;9.73;;
4122;SDS011;2075;51.062;6.920;2023-06-10T00:08:13;10.60;;;9.50;;
4122;SDS011;2075;51.062;6.920;2023-06-10T00:11:03;13.83;;;10.00;;
4122;SDS011;2075;51.062;6.920;2023-06-10T00:13:48;10.67;;;9.57;;
4122;SDS011;2075;51.062;6.920;2023-06-10T00:16:35;11.50;;;9.00;;
4122;SDS011;2075;51.062;6.920;2023-06-10T00:19:22;11.77;;;9.50;;
4122;SDS011;2075;51.062;6.920;2023-06-10T00:22:09;10.80;;;9.30;;
4122;SDS011;2075;51.062;6.920;2023-06-10T00:24:56;10.43;;;9.43;;
4122;SDS011;2075;51.062;6.920;2023-06-10T00:27:41;10.40;;;9.40;;
4122;SDS011;2075;51.062;6.920;2023-06-10T00:30:26;11.90;;;10.10;;
4122;SDS011;2075;51.062;6.920;2023-06-10T00:33:13;11.73;;;10.60;;
4122;SDS011;2075;51.062;6.920;2023-06-10T00:35:58;10.43;;;9.33;;
4122;SDS011;2075;51.062;6.920;2023-06-10T00:38:45;14.60;;;9.40;;
4122;SDS011;2075;51.062;6.920;2023-06-10T00:41:30;11.57;;;10.20;;
4122;SDS011;2075;51.062;6.920;2023-06-10T00:44:17;11.90;;;9.87;;
4122;SDS011;2075;51.062;6.920;2023-06-10T00:47:03;11.40;;;9.67;;
4122;SDS011;2075;51.062;6.920;2023-06-10T00:49:50;11.93;;;10.20;;
4122;SDS011;2075;51.062;6.920;2023-06-10T00:52:35;11.50;;;9.67;;
4122;SDS011;2075;51.062;6.920;2023-06-10T00:55:21;11.30;;;10.10;;
4122;SDS011;2075;51.062;6.920;2023-06-10T00:58:07;12.60;;;9.33;;
4122;SDS011;2075;51.062;6.920;2023-06-10T01:00:53;11.77;;;10.10;;
4122;SDS011;2075;51.062;6.920;2023-06-10T01:03:39;12.30;;;9.07;;
4122;SDS011;2075;51.062;6.920;2023-06-10T01:06:27;15.07;;;9.93;;
4122;SDS011;2075;51.062;6.920;2023-06-10T01:09:22;11.43;;;10.30;;
4122;SDS011;2075;51.062;6.920;2023-06-10T01:12:12;12.53;;;9.97;;
4122;SDS011;2075;51.062;6.920;2023-06-10T01:15:01;11.23;;;10.00;;
4122;SDS011;2075;51.062;6.920;2023-06-10T01:17:53;11.33;;;9.80;;
4122;SDS011;2075;51.062;6.920;2023-06-10T01:20:41;11.87;;;10.73;;
4122;SDS011;2075;51.062;6.920;2023-06-10T01:23:30;11.27;;;10.17;;
4122;SDS011;2075;51.062;6.920;2023-06-10T01:26:16;10.93;;;9.80;;
4122;SDS011;2075;51.062;6.920;2023-06-10T01:29:03;12.20;;;11.00;;
4122;SDS011;2075;51.062;6.920;2023-06-10T01:31:58;12.97;;;9.83;;
4122;SDS011;2075;51.062;6.920;2023-06-10T01:34:49;12.10;;;10.80;;
4122;SDS011;2075;51.062;6.920;2023-06-10T01:37:36;11.17;;;10.00;;
4122;SDS011;2075;51.062;6.920;2023-06-10T01:40:25;15.00;;;10.93;;
4122;SDS011;2075;51.062;6.920;2023-06-10T01:43:11;13.07;;;10.70;;
4122;SDS011;2075;51.062;6.920;2023-06-10T01:45:57;12.30;;;11.13;;
4122;SDS011;2075;51.062;6.920;2023-06-10T01:48:42;11.70;;;10.50;;
4122;SDS011;2075;51.062;6.920;2023-06-10T01:51:28;12.97;;;11.67;;
4122;SDS011;2075;51.062;6.920;2023-06-10T01:54:15;11.27;;;10.07;;
4122;SDS011;2075;51.062;6.920;2023-06-10T01:57:03;14.17;;;11.50;;
4122;SDS011;2075;51.062;6.920;2023-06-10T01:59:49;12.40;;;11.00;;
4122;SDS011;2075;51.062;6.920;2023-06-10T02:02:35;14.13;;;11.23;;
4122;SDS011;2075;51.062;6.920;2023-06-10T02:05:20;12.77;;;11.57;;
4122;SDS011;2075;51.062;6.920;2023-06-10T02:08:06;15.27;;;12.00;;
4122;SDS011;2075;51.062;6.920;2023-06-10T02:10:52;12.20;;;11.00;;
4122;SDS011;2075;51.062;6.920;2023-06-10T02:13:39;13.07;;;11.30;;
4122;SDS011;2075;51.062;6.920;2023-06-10T02:16:24;12.10;;;10.90;;
4122;SDS011;2075;51.062;6.920;2023-06-10T02:19:10;12.77;;;11.57;;
4122;SDS011;2075;51.062;6.920;2023-06-10T02:21:56;13.17;;;11.87;;
4122;SDS011;2075;51.062;6.920;2023-06-10T02:24:41;12.73;;;11.50;;
4122;SDS011;2075;51.062;6.920;2023-06-10T02:27:27;13.83;;;12.23;;
4122;SDS011;2075;51.062;6.920;2023-06-10T02:30:14;13.63;;;12.37;;
4122;SDS011;2075;51.062;6.920;2023-06-10T02:32:59;14.70;;;12.17;;
4122;SDS011;2075;51.062;6.920;2023-06-10T02:35:45;13.90;;;12.00;;
4122;SDS011;2075;51.062;6.920;2023-06-10T02:38:31;18.60;;;12.37;;
4122;SDS011;2075;51.062;6.920;2023-06-10T02:41:17;16.43;;;13.60;;
4122;SDS011;2075;51.062;6.920;2023-06-10T02:44:02;15.63;;;13.20;;
4122;SDS011;2075;51.062;6.920;2023-06-10T02:46:49;14.80;;;13.30;;
4122;SDS011;2075;51.062;6.920;2023-06-10T02:49:35;15.80;;;14.20;;
4122;SDS011;2075;51.062;6.920;2023-06-10T02:52:21;18.37;;;14.23;;
4122;SDS011;2075;51.062;6.920;2023-06-10T02:55:07;19.57;;;15.40;;
4122;SDS011;2075;51.062;6.920;2023-06-10T02:57:52;16.07;;;14.37;;
4122;SDS011;2075;51.062;6.920;2023-06-10T03:00:38;17.17;;;14.90;;
4122;SDS011;2075;51.062;6.920;2023-06-10T03:03:27;15.87;;;13.80;;
4122;SDS011;2075;51.062;6.920;2023-06-10T03:06:21;15.60;;;13.43;;
4122;SDS011;2075;51.062;6.920;2023-06-10T03:09:09;17.47;;;14.03;;
4122;SDS011;2075;51.062;6.920;2023-06-10T03:11:56;16.33;;;13.03;;
4122;SDS011;2075;51.062;6.920;2023-06-10T03:14:42;17.13;;;13.70;;
4122;SDS011;2075;51.062;6.920;2023-06-10T03:17:28;14.87;;;13.23;;
4122;SDS011;2075;51.062;6.920;2023-06-10T03:20:14;14.73;;;12.70;;
4122;SDS011;2075;51.062;6.920;2023-06-10T03:23:01;16.87;;;13.60;;
4122;SDS011;2075;51.062;6.920;2023-06-10T03:25:49;14.60;;;13.07;;
4122;SDS011;2075;51.062;6.920;2023-06-10T03:28:36;14.30;;;12.47;;
4122;SDS011;2075;51.062;6.920;2023-06-10T03:31:22;13.70;;;12.30;;
4122;SDS011;2075;51.062;6.920;2023-06-10T03:34:08;16.83;;;13.50;;
4122;SDS011;2075;51.062;6.920;2023-06-10T03:36:55;15.63;;;13.33;;
4122;SDS011;2075;51.062;6.920;2023-06-10T03:39:41;13.43;;;11.73;;
4122;SDS011;2075;51.062;6.920;2023-06-10T03:42:27;16.30;;;12.60;;
4122;SDS011;2075;51.062;6.920;2023-06-10T03:45:13;19.17;;;13.40;;
4122;SDS011;2075;51.062;6.920;2023-06-10T03:47:58;17.53;;;14.87;;
4122;SDS011;2075;51.062;6.920;2023-06-10T03:50:51;19.40;;;15.73;;
4122;SDS011;2075;51.062;6.920;2023-06-10T03:53:40;23.37;;;20.87;;
4122;SDS011;2075;51.062;6.920;2023-06-10T03:56:25;20.33;;;15.70;;
4122;SDS011;2075;51.062;6.920;2023-06-10T03:59:12;15.10;;;13.40;;
4122;SDS011;2075;51.062;6.920;2023-06-10T04:01:58;15.33;;;13.83;;
4122;SDS011;2075;51.062;6.920;2023-06-10T04:04:44;14.30;;;12.47;;
4122;SDS011;2075;51.062;6.920;2023-06-10T04:07:29;14.80;;;12.87;;
4122;SDS011;2075;51.062;6.920;2023-06-10T04:10:17;15.60;;;14.00;;
4122;SDS011;2075;51.062;6.920;2023-06-10T04:13:03;16.70;;;14.37;;
4122;SDS011;2075;51.062;6.920;2023-06-10T04:15:55;16.73;;;14.17;;
4122;SDS011;2075;51.062;6.920;2023-06-10T04:18:40;19.40;;;13.67;;
4122;SDS011;2075;51.062;6.920;2023-06-10T04:21:26;13.87;;;12.43;;
4122;SDS011;2075;51.062;6.920;2023-06-10T04:24:11;20.30;;;12.23;;
4122;SDS011;2075;51.062;6.920;2023-06-10T04:26:58;14.63;;;13.17;;
4122;SDS011;2075;51.062;6.920;2023-06-10T04:29:44;16.27;;;13.23;;
4122;SDS011;2075;51.062;6.920;2023-06-10T04:32:33;14.93;;;13.30;;
4122;SDS011;2075;51.062;6.920;2023-06-10T04:35:18;15.40;;;13.50;;
4122;SDS011;2075;51.062;6.920;2023-06-10T04:38:05;16.03;;;12.70;;
4122;SDS011;2075;51.062;6.920;2023-06-10T04:40:50;38.53;;;30.50;;
4122;SDS011;2075;51.062;6.920;2023-06-10T04:43:39;15.37;;;13.77;;
4122;SDS011;2075;51.062;6.920;2023-06-10T04:46:24;15.07;;;12.77;;
4122;SDS011;2075;51.062;6.920;2023-06-10T04:49:09;14.20;;;12.80;;
4122;SDS011;2075;51.062;6.920;2023-06-10T04:51:58;13.63;;;11.90;;
4122;SDS011;2075;51.062;6.920;2023-06-10T04:54:44;19.23;;;13.27;;
4122;SDS011;2075;51.062;6.920;2023-06-10T04:57:30;14.10;;;11.17;;
4122;SDS011;2075;51.062;6.920;2023-06-10T05:00:17;13.40;;;10.13;;
4122;SDS011;2075;51.062;6.920;2023-06-10T05:03:02;10.50;;;9.40;;
4122;SDS011;2075;51.062;6.920;2023-06-10T05:05:48;10.43;;;9.43;;
4122;SDS011;2075;51.062;6.920;2023-06-10T05:08:33;12.87;;;10.77;;
4122;SDS011;2075;51.062;6.920;2023-06-10T05:11:19;27.87;;;25.00;;
4122;SDS011;2075;51.062;6.920;2023-06-10T05:14:04;9.80;;;8.80;;
4122;SDS011;2075;51.062;6.920;2023-06-10T05:16:51;9.20;;;8.40;;
4122;SDS011;2075;51.062;6.920;2023-06-10T05:19:37;7.87;;;7.17;;
4122;SDS011;2075;51.062;6.920;2023-06-10T05:22:22;7.25;;;6.80;;
4122;SDS011;2075;51.062;6.920;2023-06-10T05:25:09;7.30;;;6.75;;
4122;SDS011;2075;51.062;6.920;2023-06-10T05:27:54;7.13;;;6.63;;
4122;SDS011;2075;51.062;6.920;2023-06-10T05:30:40;7.22;;;6.72;;
4122;SDS011;2075;51.062;6.920;2023-06-10T05:33:31;7.93;;;7.22;;
4122;SDS011;2075;51.062;6.920;2023-06-10T05:36:16;6.40;;;6.00;;
4122;SDS011;2075;51.062;6.920;2023-06-10T05:39:02;7.38;;;6.80;;
4122;SDS011;2075;51.062;6.920;2023-06-10T05:41:48;16.20;;;14.68;;
4122;SDS011;2075;51.062;6.920;2023-06-10T05:44:34;6.40;;;6.05;;
4122;SDS011;2075;51.062;6.920;2023-06-10T05:47:20;6.03;;;5.63;;
4122;SDS011;2075;51.062;6.920;2023-06-10T05:50:08;5.95;;;5.57;;
4122;SDS011;2075;51.062;6.920;2023-06-10T05:52:55;7.88;;;5.65;;
4122;SDS011;2075;51.062;6.920;2023-06-10T05:55:41;5.60;;;5.18;;
4122;SDS011;2075;51.062;6.920;2023-06-10T05:58:27;5.88;;;5.32;;
4122;SDS011;2075;51.062;6.920;2023-06-10T06:01:14;5.90;;;5.50;;
4122;SDS011;2075;51.062;6.920;2023-06-10T06:06:43;12.77;;;11.57;;
4122;SDS011;2075;51.062;6.920;2023-06-10T06:09:30;5.35;;;5.03;;
4122;SDS011;2075;51.062;6.920;2023-06-10T06:12:16;5.95;;;5.45;;
4122;SDS011;2075;51.062;6.920;2023-06-10T06:15:01;5.43;;;5.10;;
4122;SDS011;2075;51.062;6.920;2023-06-10T06:17:47;5.57;;;5.07;;
4122;SDS011;2075;51.062;6.920;2023-06-10T06:20:33;5.85;;;5.35;;
4122;SDS011;2075;51.062;6.920;2023-06-10T06:23:20;5.00;;;4.72;;
4122;SDS011;2075;51.062;6.920;2023-06-10T06:26:05;4.97;;;4.70;;
4122;SDS011;2075;51.062;6.920;2023-06-10T06:28:51;6.07;;;5.57;;
4122;SDS011;2075;51.062;6.920;2023-06-10T06:31:37;5.40;;;4.90;;
4122;SDS011;2075;51.062;6.920;2023-06-10T06:34:22;11.63;;;10.82;;
4122;SDS011;2075;51.062;6.920;2023-06-10T06:37:08;5.18;;;4.85;;
4122;SDS011;2075;51.062;6.920;2023-06-10T06:39:59;5.45;;;5.15;;
4122;SDS011;2075;51.062;6.920;2023-06-10T06:42:44;5.60;;;5.10;;
4122;SDS011;2075;51.062;6.920;2023-06-10T06:45:56;4.80;;;4.60;;
4122;SDS011;2075;51.062;6.920;2023-06-10T06:48:41;4.50;;;4.30;;
4122;SDS011;2075;51.062;6.920;2023-06-10T06:51:26;8.18;;;5.30;;
4122;SDS011;2075;51.062;6.920;2023-06-10T06:54:13;5.00;;;4.80;;
4122;SDS011;2075;51.062;6.920;2023-06-10T06:57:00;5.03;;;4.63;;
4122;SDS011;2075;51.062;6.920;2023-06-10T06:59:46;5.25;;;4.90;;
4122;SDS011;2075;51.062;6.920;2023-06-10T07:02:31;5.35;;;4.95;;
4122;SDS011;2075;51.062;6.920;2023-06-10T07:05:18;4.70;;;4.50;;
4122;SDS011;2075;51.062;6.920;2023-06-10T07:08:03;5.30;;;4.80;;
4122;SDS011;2075;51.062;6.920;2023-06-10T07:10:51;4.75;;;4.45;;
4122;SDS011;2075;51.062;6.920;2023-06-10T07:13:38;4.90;;;4.65;;
4122;SDS011;2075;51.062;6.920;2023-06-10T07:16:23;5.18;;;4.40;;
4122;SDS011;2075;51.062;6.920;2023-06-10T07:19:09;4.95;;;4.75;;
4122;SDS011;2075;51.062;6.920;2023-06-10T07:21:54;5.30;;;4.95;;
4122;SDS011;2075;51.062;6.920;2023-06-10T07:24:40;5.63;;;4.38;;
4122;SDS011;2075;51.062;6.920;2023-06-10T07:27:25;4.65;;;4.35;;
4122;SDS011;2075;51.062;6.920;2023-06-10T07:30:12;5.38;;;4.85;;
4122;SDS011;2075;51.062;6.920;2023-06-10T07:32:58;4.57;;;4.38;;
4122;SDS011;2075;51.062;6.920;2023-06-10T07:35:44;4.93;;;4.53;;
4122;SDS011;2075;51.062;6.920;2023-06-10T07:38:29;5.03;;;4.57;;
4122;SDS011;2075;51.062;6.920;2023-06-10T07:41:15;4.88;;;4.32;;
4122;SDS011;2075;51.062;6.920;2023-06-10T07:44:02;4.65;;;4.35;;
4122;SDS011;2075;51.062;6.920;2023-06-10T07:46:49;3.90;;;3.80;;
4122;SDS011;2075;51.062;6.920;2023-06-10T07:49:34;4.75;;;4.55;;
4122;SDS011;2075;51.062;6.920;2023-06-10T07:52:20;5.13;;;4.68;;
4122;SDS011;2075;51.062;6.920;2023-06-10T07:55:05;4.38;;;4.13;;
4122;SDS011;2075;51.062;6.920;2023-06-10T07:57:57;4.57;;;4.22;;
4122;SDS011;2075;51.062;6.920;2023-06-10T08:00:42;4.30;;;4.10;;
4122;SDS011;2075;51.062;6.920;2023-06-10T08:03:31;4.40;;;4.07;;
4122;SDS011;2075;51.062;6.920;2023-06-10T08:06:16;4.35;;;4.13;;
4122;SDS011;2075;51.062;6.920;2023-06-10T08:09:02;4.35;;;4.05;;
4122;SDS011;2075;51.062;6.920;2023-06-10T08:11:47;4.15;;;3.95;;
4122;SDS011;2075;51.062;6.920;2023-06-10T08:14:32;4.20;;;4.00;;
4122;SDS011;2075;51.062;6.920;2023-06-10T08:17:18;4.47;;;4.30;;
4122;SDS011;2075;51.062;6.920;2023-06-10T08:20:06;4.95;;;4.32;;
4122;SDS011;2075;51.062;6.920;2023-06-10T08:22:51;4.93;;;4.40;;
4122;SDS011;2075;51.062;6.920;2023-06-10T08:25:36;4.78;;;4.57;;
4122;SDS011;2075;51.062;6.920;2023-06-10T08:28:22;3.97;;;3.78;;
4122;SDS011;2075;51.062;6.920;2023-06-10T08:31:08;4.30;;;3.90;;
4122;SDS011;2075;51.062;6.920;2023-06-10T08:33:53;4.72;;;4.15;;
4122;SDS011;2075;51.062;6.920;2023-06-10T08:36:40;4.70;;;4.25;;
4122;SDS011;2075;51.062;6.920;2023-06-10T08:39:26;5.05;;;4.18;;
4122;SDS011;2075;51.062;6.920;2023-06-10T08:42:17;4.75;;;4.45;;
4122;SDS011;2075;51.062;6.920;2023-06-10T08:45:09;4.47;;;4.28;;
4122;SDS011;2075;51.062;6.920;2023-06-10T08:48:01;4.65;;;4.25;;
4122;SDS011;2075;51.062;6.920;2023-06-10T08:50:50;5.20;;;4.80;;
4122;SDS011;2075;51.062;6.920;2023-06-10T08:53:38;4.95;;;4.45;;
4122;SDS011;2075;51.062;6.920;2023-06-10T08:56:31;4.75;;;4.07;;
4122;SDS011;2075;51.062;6.920;2023-06-10T08:59:23;4.55;;;4.35;;
4122;SDS011;2075;51.062;6.920;2023-06-10T09:02:10;5.38;;;4.28;;
4122;SDS011;2075;51.062;6.920;2023-06-10T09:04:56;4.47;;;4.38;;
4122;SDS011;2075;51.062;6.920;2023-06-10T09:07:41;5.68;;;4.70;;
4122;SDS011;2075;51.062;6.920;2023-06-10T09:10:29;4.93;;;4.68;;
4122;SDS011;2075;51.062;6.920;2023-06-10T09:13:14;6.68;;;4.55;;
4122;SDS011;2075;51.062;6.920;2023-06-10T09:16:02;5.40;;;4.88;;
4122;SDS011;2075;51.062;6.920;2023-06-10T09:18:49;5.57;;;5.00;;
4122;SDS011;2075;51.062;6.920;2023-06-10T09:21:38;7.00;;;5.85;;
4122;SDS011;2075;51.062;6.920;2023-06-10T09:24:24;7.95;;;6.15;;
4122;SDS011;2075;51.062;6.920;2023-06-10T09:27:14;7.78;;;6.70;;
4122;SDS011;2075;51.062;6.920;2023-06-10T09:29:59;7.60;;;6.80;;
4122;SDS011;2075;51.062;6.920;2023-06-10T09:32:44;7.70;;;7.00;;
4122;SDS011;2075;51.062;6.920;2023-06-10T09:35:31;7.23;;;6.73;;
4122;SDS011;2075;51.062;6.920;2023-06-10T09:38:19;11.13;;;6.40;;
4122;SDS011;2075;51.062;6.920;2023-06-10T09:41:05;8.77;;;6.80;;
4122;SDS011;2075;51.062;6.920;2023-06-10T09:43:55;8.40;;;7.13;;
4122;SDS011;2075;51.062;6.920;2023-06-10T09:46:40;7.73;;;7.03;;
4122;SDS011;2075;51.062;6.920;2023-06-10T09:49:28;7.80;;;7.20;;
4122;SDS011;2075;51.062;6.920;2023-06-10T09:52:14;8.63;;;7.83;;
4122;SDS011;2075;51.062;6.920;2023-06-10T09:55:07;8.03;;;7.23;;
4122;SDS011;2075;51.062;6.920;2023-06-10T09:57:54;8.43;;;7.20;;
4122;SDS011;2075;51.062;6.920;2023-06-10T10:00:40;10.43;;;7.80;;
4122;SDS011;2075;51.062;6.920;2023-06-10T10:03:25;10.93;;;7.10;;
4122;SDS011;2075;51.062;6.920;2023-06-10T10:06:11;9.03;;;6.87;;
4122;SDS011;2075;51.062;6.920;2023-06-10T10:08:57;7.70;;;6.90;;
4122;SDS011;2075;51.062;6.920;2023-06-10T10:11:42;7.97;;;7.30;;
4122;SDS011;2075;51.062;6.920;2023-06-10T10:14:29;12.87;;;7.10;;
4122;SDS011;2075;51.062;6.920;2023-06-10T10:17:18;7.53;;;7.03;;
4122;SDS011;2075;51.062;6.920;2023-06-10T10:20:08;8.00;;;7.30;;
4122;SDS011;2075;51.062;6.920;2023-06-10T10:22:57;8.43;;;7.03;;
4122;SDS011;2075;51.062;6.920;2023-06-10T10:25:44;9.03;;;7.30;;
4122;SDS011;2075;51.062;6.920;2023-06-10T10:28:37;15.30;;;7.30;;
4122;SDS011;2075;51.062;6.920;2023-06-10T10:31:29;8.70;;;7.83;;
4122;SDS011;2075;51.062;6.920;2023-06-10T10:34:21;8.43;;;7.47;;
4122;SDS011;2075;51.062;6.920;2023-06-10T10:37:13;8.30;;;6.90;;
4122;SDS011;2075;51.062;6.920;2023-06-10T10:39:59;8.50;;;7.70;;
4122;SDS011;2075;51.062;6.920;2023-06-10T10:42:47;8.30;;;7.60;;
4122;SDS011;2075;51.062;6.920;2023-06-10T10:45:33;8.63;;;7.30;;
4122;SDS011;2075;51.062;6.920;2023-06-10T10:48:19;9.60;;;8.37;;
4122;SDS011;2075;51.062;6.920;2023-06-10T10:51:06;9.43;;;8.20;;
4122;SDS011;2075;51.062;6.920;2023-06-10T10:54:10;13.73;;;9.00;;
4122;SDS011;2075;51.062;6.920;2023-06-10T10:57:13;8.53;;;7.93;;
4122;SDS011;2075;51.062;6.920;2023-06-10T10:59:59;11.73;;;8.77;;
4122;SDS011;2075;51.062;6.920;2023-06-10T11:02:48;12.10;;;8.33;;
4122;SDS011;2075;51.062;6.920;2023-06-10T11:05:37;8.43;;;7.67;;
4122;SDS011;2075;51.062;6.920;2023-06-10T11:11:38;12.13;;;7.87;;
4122;SDS011;2075;51.062;6.920;2023-06-10T11:14:34;10.30;;;7.30;;
4122;SDS011;2075;51.062;6.920;2023-06-10T11:17:20;8.60;;;7.90;;
4122;SDS011;2075;51.062;6.920;2023-06-10T11:20:07;12.20;;;7.90;;
4122;SDS011;2075;51.062;6.920;2023-06-10T11:22:58;8.43;;;7.10;;
4122;SDS011;2075;51.062;6.920;2023-06-10T11:25:45;8.37;;;7.67;;
4122;SDS011;2075;51.062;6.920;2023-06-10T11:28:31;20.50;;;8.20;;
4122;SDS011;2075;51.062;6.920;2023-06-10T11:31:18;12.43;;;7.70;;
4122;SDS011;2075;51.062;6.920;2023-06-10T11:34:04;8.50;;;7.73;;
4122;SDS011;2075;51.062;6.920;2023-06-10T11:36:51;8.57;;;7.67;;
4122;SDS011;2075;51.062;6.920;2023-06-10T11:39:37;8.67;;;8.00;;
4122;SDS011;2075;51.062;6.920;2023-06-10T11:42:23;7.83;;;7.23;;
4122;SDS011;2075;51.062;6.920;2023-06-10T11:45:09;7.87;;;7.00;;
4122;SDS011;2075;51.062;6.920;2023-06-10T11:47:55;8.10;;;7.30;;
4122;SDS011;2075;51.062;6.920;2023-06-10T11:50:42;7.03;;;6.53;;
4122;SDS011;2075;51.062;6.920;2023-06-10T11:53:27;7.83;;;6.77;;
4122;SDS011;2075;51.062;6.920;2023-06-10T11:56:13;7.50;;;6.80;;
4122;SDS011;2075;51.062;6.920;2023-06-10T11:59:00;7.77;;;6.97;;
4122;SDS011;2075;51.062;6.920;2023-06-10T12:01:49;8.20;;;7.00;;
4122;SDS011;2075;51.062;6.920;2023-06-10T12:04:35;7.30;;;6.70;;
4122;SDS011;2075;51.062;6.920;2023-06-10T12:07:21;7.20;;;6.70;;
4122;SDS011;2075;51.062;6.920;2023-06-10T12:10:07;7.50;;;6.90;;
4122;SDS011;2075;51.062;6.920;2023-06-10T12:12:52;7.43;;;6.80;;
4122;SDS011;2075;51.062;6.920;2023-06-10T12:15:39;7.83;;;7.07;;
4122;SDS011;2075;51.062;6.920;2023-06-10T12:18:25;7.27;;;6.60;;
4122;SDS011;2075;51.062;6.920;2023-06-10T12:21:17;8.63;;;7.07;;
4122;SDS011;2075;51.062;6.920;2023-06-10T12:24:04;7.57;;;6.97;;
4122;SDS011;2075;51.062;6.920;2023-06-10T12:26:53;7.50;;;6.90;;
4122;SDS011;2075;51.062;6.920;2023-06-10T12:29:40;6.80;;;6.33;;
4122;SDS011;2075;51.062;6.920;2023-06-10T12:32:39;6.10;;;5.80;;
4122;SDS011;2075;51.062;6.920;2023-06-10T12:35:27;7.13;;;6.50;;
4122;SDS011;2075;51.062;6.920;2023-06-10T12:38:12;9.30;;;6.70;;
4122;SDS011;2075;51.062;6.920;2023-06-10T12:41:01;6.97;;;6.43;;
4122;SDS011;2075;51.062;6.920;2023-06-10T12:43:47;7.70;;;7.10;;
4122;SDS011;2075;51.062;6.920;2023-06-10T12:46:35;7.93;;;6.80;;
4122;SDS011;2075;51.062;6.920;2023-06-10T12:49:22;8.20;;;7.47;;
4122;SDS011;2075;51.062;6.920;2023-06-10T12:52:09;8.87;;;7.90;;
4122;SDS011;2075;51.062;6.920;2023-06-10T12:54:58;8.40;;;7.20;;
4122;SDS011;2075;51.062;6.920;2023-06-10T12:57:48;7.73;;;7.00;;
4122;SDS011;2075;51.062;6.920;2023-06-10T13:00:35;8.83;;;7.93;;
4122;SDS011;2075;51.062;6.920;2023-06-10T13:03:20;9.00;;;7.33;;
4122;SDS011;2075;51.062;6.920;2023-06-10T13:06:08;8.93;;;7.93;;
4122;SDS011;2075;51.062;6.920;2023-06-10T13:08:56;8.73;;;7.83;;
4122;SDS011;2075;51.062;6.920;2023-06-10T13:11:41;7.60;;;7.00;;
4122;SDS011;2075;51.062;6.920;2023-06-10T13:14:30;9.60;;;7.37;;
4122;SDS011;2075;51.062;6.920;2023-06-10T13:17:16;7.70;;;6.97;;
4122;SDS011;2075;51.062;6.920;2023-06-10T13:20:02;7.30;;;6.60;;
4122;SDS011;2075;51.062;6.920;2023-06-10T13:22:50;7.83;;;7.07;;
4122;SDS011;2075;51.062;6.920;2023-06-10T13:25:35;7.93;;;6.40;;
4122;SDS011;2075;51.062;6.920;2023-06-10T13:28:20;6.83;;;6.30;;
4122;SDS011;2075;51.062;6.920;2023-06-10T13:31:06;7.47;;;6.23;;
4122;SDS011;2075;51.062;6.920;2023-06-10T13:33:51;10.03;;;7.20;;
4122;SDS011;2075;51.062;6.920;2023-06-10T13:36:36;7.20;;;6.00;;
4122;SDS011;2075;51.062;6.920;2023-06-10T13:39:24;7.07;;;6.47;;
4122;SDS011;2075;51.062;6.920;2023-06-10T13:42:09;6.10;;;5.60;;
4122;SDS011;2075;51.062;6.920;2023-06-10T13:44:55;6.70;;;6.10;;
4122;SDS011;2075;51.062;6.920;2023-06-10T13:47:43;6.53;;;6.07;;
4122;SDS011;2075;51.062;6.920;2023-06-10T13:50:30;7.03;;;5.97;;
4122;SDS011;2075;51.062;6.920;2023-06-10T13:53:17;7.20;;;5.53;;
4122;SDS011;2075;51.062;6.920;2023-06-10T13:56:06;6.00;;;5.50;;
4122;SDS011;2075;51.062;6.920;2023-06-10T13:58:54;6.97;;;5.93;;
4122;SDS011;2075;51.062;6.920;2023-06-10T14:01:39;8.73;;;5.97;;
4122;SDS011;2075;51.062;6.920;2023-06-10T14:04:26;9.50;;;5.97;;
4122;SDS011;2075;51.062;6.920;2023-06-10T14:07:11;6.40;;;5.90;;
4122;SDS011;2075;51.062;6.920;2023-06-10T14:09:57;6.93;;;5.70;;
4122;SDS011;2075;51.062;6.920;2023-06-10T14:12:43;6.67;;;5.77;;
4122;SDS011;2075;51.062;6.920;2023-06-10T14:15:29;5.93;;;5.43;;
4122;SDS011;2075;51.062;6.920;2023-06-10T14:18:16;6.53;;;6.03;;
4122;SDS011;2075;51.062;6.920;2023-06-10T14:21:01;6.20;;;5.80;;
4122;SDS011;2075;51.062;6.920;2023-06-10T14:23:49;6.23;;;5.83;;
4122;SDS011;2075;51.062;6.920;2023-06-10T14:26:37;6.43;;;5.83;;
4122;SDS011;2075;51.062;6.920;2023-06-10T14:29:23;8.80;;;5.53;;
4122;SDS011;2075;51.062;6.920;2023-06-10T14:32:10;6.00;;;5.50;;
4122;SDS011;2075;51.062;6.920;2023-06-10T14:34:56;5.97;;;5.57;;
4122;SDS011;2075;51.062;6.920;2023-06-10T14:37:41;6.10;;;5.70;;
4122;SDS011;2075;51.062;6.920;2023-06-10T14:40:27;6.83;;;6.03;;
4122;SDS011;2075;51.062;6.920;2023-06-10T14:43:13;6.27;;;5.70;;
4122;SDS011;2075;51.062;6.920;2023-06-10T14:46:00;9.30;;;6.20;;
4122;SDS011;2075;51.062;6.920;2023-06-10T14:48:45;6.43;;;5.77;;
4122;SDS011;2075;51.062;6.920;2023-06-10T14:51:31;6.37;;;5.77;;
4122;SDS011;2075;51.062;6.920;2023-06-10T14:54:16;6.70;;;5.30;;
4122;SDS011;2075;51.062;6.920;2023-06-10T14:57:02;5.73;;;5.23;;
4122;SDS011;2075;51.062;6.920;2023-06-10T14:59:49;6.00;;;5.50;;
4122;SDS011;2075;51.062;6.920;2023-06-10T15:02:36;5.93;;;5.53;;
4122;SDS011;2075;51.062;6.920;2023-06-10T15:05:21;5.37;;;4.97;;
4122;SDS011;2075;51.062;6.920;2023-06-10T15:08:07;6.37;;;5.77;;
4122;SDS011;2075;51.062;6.920;2023-06-10T15:10:52;6.20;;;5.60;;
4122;SDS011;2075;51.062;6.920;2023-06-10T15:13:38;7.47;;;5.37;;
4122;SDS011;2075;51.062;6.920;2023-06-10T15:16:23;6.70;;;5.90;;
4122;SDS011;2075;51.062;6.920;2023-06-10T15:19:10;6.23;;;5.73;;
4122;SDS011;2075;51.062;6.920;2023-06-10T15:21:56;5.77;;;5.27;;
4122;SDS011;2075;51.062;6.920;2023-06-10T15:24:41;6.10;;;5.50;;
4122;SDS011;2075;51.062;6.920;2023-06-10T15:27:27;9.63;;;5.70;;
4122;SDS011;2075;51.062;6.920;2023-06-10T15:30:12;6.40;;;5.33;;
4122;SDS011;2075;51.062;6.920;2023-06-10T15:32:58;8.63;;;5.67;;
4122;SDS011;2075;51.062;6.920;2023-06-10T15:35:45;6.43;;;5.90;;
4122;SDS011;2075;51.062;6.920;2023-06-10T15:38:30;6.77;;;5.80;;
4122;SDS011;2075;51.062;6.920;2023-06-10T15:41:16;5.60;;;5.10;;
4122;SDS011;2075;51.062;6.920;2023-06-10T15:44:01;6.37;;;5.80;;
4122;SDS011;2075;51.062;6.920;2023-06-10T15:46:47;6.80;;;5.37;;
4122;SDS011;2075;51.062;6.920;2023-06-10T15:49:33;6.50;;;6.00;;
4122;SDS011;2075;51.062;6.920;2023-06-10T15:52:20;7.43;;;5.60;;
4122;SDS011;2075;51.062;6.920;2023-06-10T15:55:06;6.53;;;5.43;;
4122;SDS011;2075;51.062;6.920;2023-06-10T15:57:51;7.27;;;5.87;;
4122;SDS011;2075;51.062;6.920;2023-06-10T16:00:37;5.80;;;5.40;;
4122;SDS011;2075;51.062;6.920;2023-06-10T16:03:22;7.80;;;5.37;;
4122;SDS011;2075;51.062;6.920;2023-06-10T16:06:08;5.83;;;5.03;;
4122;SDS011;2075;51.062;6.920;2023-06-10T16:08:54;5.97;;;5.10;;
4122;SDS011;2075;51.062;6.920;2023-06-10T16:11:40;6.07;;;5.57;;
4122;SDS011;2075;51.062;6.920;2023-06-10T16:14:26;6.07;;;5.63;;
4122;SDS011;2075;51.062;6.920;2023-06-10T16:17:11;5.67;;;5.27;;
4122;SDS011;2075;51.062;6.920;2023-06-10T16:19:56;6.03;;;5.63;;
4122;SDS011;2075;51.062;6.920;2023-06-10T16:22:42;6.20;;;5.70;;
4122;SDS011;2075;51.062;6.920;2023-06-10T16:25:29;5.93;;;5.43;;
4122;SDS011;2075;51.062;6.920;2023-06-10T16:28:14;5.67;;;5.27;;
4122;SDS011;2075;51.062;6.920;2023-06-10T16:30:59;7.50;;;5.80;;
4122;SDS011;2075;51.062;6.920;2023-06-10T16:33:46;6.80;;;6.13;;
4122;SDS011;2075;51.062;6.920;2023-06-10T16:36:32;6.43;;;5.50;;
4122;SDS011;2075;51.062;6.920;2023-06-10T16:39:17;5.63;;;5.20;;
4122;SDS011;2075;51.062;6.920;2023-06-10T16:42:04;5.93;;;5.40;;
4122;SDS011;2075;51.062;6.920;2023-06-10T16:44:53;9.97;;;5.73;;
4122;SDS011;2075;51.062;6.920;2023-06-10T16:47:39;5.30;;;4.90;;
4122;SDS011;2075;51.062;6.920;2023-06-10T16:50:24;5.13;;;4.73;;
4122;SDS011;2075;51.062;6.920;2023-06-10T16:53:10;6.03;;;5.43;;
4122;SDS011;2075;51.062;6.920;2023-06-10T16:55:55;6.00;;;5.60;;
4122;SDS011;2075;51.062;6.920;2023-06-10T16:58:42;9.00;;;5.80;;
4122;SDS011;2075;51.062;6.920;2023-06-10T17:01:30;6.57;;;6.00;;
4122;SDS011;2075;51.062;6.920;2023-06-10T17:04:16;6.13;;;5.63;;
4122;SDS011;2075;51.062;6.920;2023-06-10T17:07:04;6.23;;;5.63;;
4122;SDS011;2075;51.062;6.920;2023-06-10T17:09:50;5.43;;;5.03;;
4122;SDS011;2075;51.062;6.920;2023-06-10T17:12:36;7.20;;;5.20;;
4122;SDS011;2075;51.062;6.920;2023-06-10T17:15:22;6.90;;;6.00;;